createdAt,value
2019-01-11T00:03:20.671Z,9.90
2019-01-11T00:05:49.216Z,9.30
2019-01-11T00:08:17.725Z,8.60
2019-01-11T00:10:46.222Z,9.00
2019-01-11T00:13:14.664Z,7.70
2019-01-11T00:15:43.095Z,10.43
2019-01-11T00:18:11.672Z,8.20
2019-01-11T00:20:40.144Z,8.67
2019-01-11T00:23:08.653Z,9.00
2019-01-11T00:25:37.142Z,8.10
2019-01-11T00:28:05.654Z,8.00
2019-01-11T00:30:34.099Z,9.17
2019-01-11T00:33:02.507Z,9.27
2019-01-11T00:35:30.952Z,10.53
2019-01-11T00:37:59.365Z,8.83
2019-01-11T00:40:27.791Z,9.85
2019-01-11T00:42:56.230Z,10.97
2019-01-11T00:45:24.637Z,8.97
2019-01-11T00:47:53.060Z,9.40
2019-01-11T00:50:22.628Z,9.43
2019-01-11T00:52:51.120Z,11.00
2019-01-11T00:55:19.627Z,9.00
2019-01-11T00:57:48.125Z,10.70
2019-01-11T01:00:20.008Z,10.38
2019-01-11T01:02:48.666Z,11.10
2019-01-11T01:05:17.354Z,9.13
2019-01-11T01:07:46.126Z,10.50
2019-01-11T01:10:15.032Z,10.00
2019-01-11T01:12:43.440Z,9.65
2019-01-11T01:15:13.477Z,10.50
2019-01-11T01:17:42.079Z,10.53
2019-01-11T01:20:16.249Z,10.30
2019-01-11T01:22:44.936Z,8.67
2019-01-11T01:25:14.070Z,9.50
2019-01-11T01:27:42.495Z,8.83
2019-01-11T01:30:14.385Z,10.45
2019-01-11T01:32:43.039Z,9.57
2019-01-11T01:35:11.610Z,9.50
2019-01-11T01:37:40.031Z,9.43
2019-01-11T01:40:11.356Z,11.10
2019-01-11T01:42:39.930Z,10.50
2019-01-11T01:45:11.428Z,9.27
2019-01-11T01:47:39.871Z,10.17
2019-01-11T01:50:10.621Z,9.50
2019-01-11T01:52:39.312Z,10.33
2019-01-11T01:55:10.581Z,10.13
2019-01-11T01:57:39.102Z,12.27
2019-01-11T02:00:13.401Z,10.77
2019-01-11T02:02:41.931Z,10.67
2019-01-11T02:05:10.918Z,10.87
2019-01-11T02:07:39.475Z,9.83
2019-01-11T02:10:10.723Z,9.60
2019-01-11T02:12:39.179Z,10.03
2019-01-11T02:15:09.308Z,9.83
2019-01-11T02:17:37.918Z,9.53
2019-01-11T02:20:14.863Z,9.77
2019-01-11T02:22:43.764Z,10.27
2019-01-11T02:25:12.904Z,12.80
2019-01-11T02:27:41.342Z,9.93
2019-01-11T02:30:15.554Z,11.23
2019-01-11T02:32:43.981Z,10.33
2019-01-11T02:35:12.598Z,10.23
2019-01-11T02:37:41.134Z,10.07
2019-01-11T02:40:11.103Z,9.80
2019-01-11T02:42:39.557Z,10.73
2019-01-11T02:45:11.417Z,10.20
2019-01-11T02:47:39.853Z,12.80
2019-01-11T02:50:10.217Z,10.00
2019-01-11T02:52:38.641Z,9.83
2019-01-11T02:55:08.714Z,11.07
2019-01-11T02:57:37.200Z,10.27
2019-01-11T03:00:14.745Z,12.80
2019-01-11T03:02:44.703Z,10.97
2019-01-11T03:05:14.087Z,11.70
2019-01-11T03:07:42.741Z,10.60
2019-01-11T03:10:16.406Z,11.63
2019-01-11T03:12:44.881Z,13.77
2019-01-11T03:15:14.661Z,11.90
2019-01-11T03:17:43.299Z,11.97
2019-01-11T03:20:13.977Z,11.23
2019-01-11T03:22:42.461Z,13.37
2019-01-11T03:25:13.549Z,14.30
2019-01-11T03:27:41.983Z,11.10
2019-01-11T03:30:15.714Z,12.60
2019-01-11T03:32:44.221Z,11.53
2019-01-11T03:35:17.457Z,12.90
2019-01-11T03:37:47.134Z,12.87
2019-01-11T03:40:18.273Z,12.90
2019-01-11T03:42:46.830Z,14.80
2019-01-11T03:45:17.505Z,11.37
2019-01-11T03:47:46.017Z,12.70
2019-01-11T03:50:17.068Z,14.03
2019-01-11T03:52:45.731Z,12.50
2019-01-11T03:55:15.468Z,12.13
2019-01-11T03:57:44.268Z,11.67
2019-01-11T04:00:15.606Z,13.30
2019-01-11T04:02:44.097Z,13.40
2019-01-11T04:05:12.858Z,11.00
2019-01-11T04:07:41.361Z,11.97
2019-01-11T04:10:13.423Z,11.40
2019-01-11T04:12:41.861Z,11.97
2019-01-11T04:15:12.939Z,11.63
2019-01-11T04:17:41.387Z,11.83
2019-01-11T04:20:15.633Z,11.93
2019-01-11T04:22:45.899Z,12.30
2019-01-11T04:25:19.140Z,13.50
2019-01-11T04:27:48.189Z,12.53
2019-01-11T04:30:17.257Z,12.83
2019-01-11T04:32:45.872Z,12.80
2019-01-11T04:35:14.517Z,11.50
2019-01-11T04:37:43.026Z,11.77
2019-01-11T04:40:12.976Z,12.67
2019-01-11T04:42:41.432Z,12.67
2019-01-11T04:45:10.804Z,10.97
2019-01-11T04:47:39.386Z,11.37
2019-01-11T04:50:10.882Z,11.80
2019-01-11T04:52:39.317Z,12.00
2019-01-11T04:55:07.995Z,11.53
2019-01-11T04:57:36.492Z,10.07
2019-01-11T05:00:08.017Z,11.50
2019-01-11T05:02:36.434Z,10.60
2019-01-11T05:05:06.212Z,11.40
2019-01-11T05:07:34.708Z,11.87
2019-01-11T05:10:05.387Z,9.40
2019-01-11T05:12:33.829Z,11.23
2019-01-11T05:15:02.541Z,11.50
2019-01-11T05:17:30.967Z,10.90
2019-01-11T05:19:59.475Z,10.50
2019-01-11T05:22:27.914Z,10.80
2019-01-11T05:24:56.356Z,12.83
2019-01-11T05:27:24.780Z,11.73
2019-01-11T05:29:53.234Z,12.37
2019-01-11T05:32:21.672Z,12.03
2019-01-11T05:34:50.138Z,10.40
2019-01-11T05:37:18.542Z,12.70
2019-01-11T05:39:47.063Z,10.73
2019-01-11T05:42:15.504Z,10.97
2019-01-11T05:44:43.933Z,12.30
2019-01-11T05:47:12.366Z,9.40
2019-01-11T05:49:40.780Z,10.37
2019-01-11T05:52:09.214Z,11.40
2019-01-11T05:54:37.671Z,10.20
2019-01-11T05:57:06.084Z,8.63
2019-01-11T05:59:34.493Z,11.23
2019-01-11T06:02:02.957Z,10.50
2019-01-11T06:04:35.709Z,10.03
2019-01-11T06:07:11.719Z,10.30
2019-01-11T06:09:41.206Z,10.93
2019-01-11T06:12:09.728Z,13.13
2019-01-11T06:14:38.155Z,11.73
2019-01-11T06:17:06.610Z,17.63
2019-01-11T06:19:35.057Z,11.73
2019-01-11T06:22:03.652Z,11.73
2019-01-11T06:24:32.074Z,10.97
2019-01-11T06:27:00.531Z,16.87
2019-01-11T06:29:28.969Z,17.63
2019-01-11T06:31:57.401Z,10.97
2019-01-11T06:34:26.020Z,12.23
2019-01-11T06:36:54.461Z,10.97
2019-01-11T06:39:22.926Z,10.87
2019-01-11T06:41:53.013Z,11.15
2019-01-11T06:44:21.449Z,10.80
2019-01-11T06:46:50.088Z,12.45
2019-01-11T06:49:18.564Z,11.25
2019-01-11T06:51:47.004Z,11.80
2019-01-11T06:54:15.515Z,12.15
2019-01-11T06:56:43.948Z,11.90
2019-01-11T06:59:12.393Z,11.73
2019-01-11T07:01:40.817Z,12.18
2019-01-11T07:04:09.269Z,12.10
2019-01-11T07:06:39.167Z,10.17
2019-01-11T07:09:08.328Z,12.17
2019-01-11T07:11:36.824Z,13.62
2019-01-11T07:14:05.595Z,12.50
2019-01-11T07:16:34.064Z,12.18
2019-01-11T07:19:02.519Z,12.55
2019-01-11T07:21:31.056Z,13.35
2019-01-11T07:23:59.520Z,12.20
2019-01-11T07:26:28.044Z,11.87
2019-01-11T07:28:56.483Z,11.80
2019-01-11T07:31:25.381Z,11.47
2019-01-11T07:33:54.260Z,12.03
2019-01-11T07:36:29.420Z,11.13
2019-01-11T07:38:58.180Z,11.40
2019-01-11T07:41:26.610Z,14.83
2019-01-11T07:43:55.116Z,13.10
2019-01-11T07:46:23.611Z,9.70
2019-01-11T07:48:52.021Z,8.27
2019-01-11T07:51:20.529Z,12.13
2019-01-11T07:53:49.016Z,12.70
2019-01-11T07:56:17.513Z,10.03
2019-01-11T07:58:45.937Z,11.23
2019-01-11T08:01:14.453Z,10.77
2019-01-11T08:03:42.893Z,12.10
2019-01-11T08:06:11.385Z,10.13
2019-01-11T08:08:39.867Z,10.50
2019-01-11T08:11:08.444Z,13.40
2019-01-11T08:13:36.881Z,11.03
2019-01-11T08:16:05.392Z,10.73
2019-01-11T08:18:33.799Z,11.23
2019-01-11T08:21:02.317Z,10.75
2019-01-11T08:23:30.805Z,11.70
2019-01-11T08:25:59.304Z,10.53
2019-01-11T08:28:28.560Z,10.30
2019-01-11T08:30:57.014Z,10.80
2019-01-11T08:33:26.190Z,9.23
2019-01-11T08:35:54.654Z,10.20
2019-01-11T08:38:23.171Z,9.47
2019-01-11T08:40:51.599Z,9.83
2019-01-11T08:43:20.016Z,10.63
2019-01-11T08:45:48.504Z,12.57
2019-01-11T08:48:16.982Z,8.60
2019-01-11T08:50:46.978Z,10.97
2019-01-11T08:53:15.493Z,10.63
2019-01-11T08:55:44.053Z,11.13
2019-01-11T08:58:12.494Z,23.27
2019-01-11T09:00:40.913Z,11.47
2019-01-11T09:03:09.347Z,12.50
2019-01-11T09:05:37.779Z,12.30
2019-01-11T09:08:06.269Z,11.90
2019-01-11T09:10:34.698Z,11.77
2019-01-11T09:13:03.136Z,12.43
2019-01-11T09:15:31.570Z,11.33
2019-01-11T09:18:04.405Z,12.13
2019-01-11T09:20:32.892Z,12.13
2019-01-11T09:23:01.414Z,12.20
2019-01-11T09:25:29.840Z,10.80
2019-01-11T09:27:58.275Z,11.07
2019-01-11T09:30:26.696Z,13.20
2019-01-11T09:32:55.150Z,11.70
2019-01-11T09:35:23.950Z,10.73
2019-01-11T09:37:52.409Z,10.53
2019-01-11T09:40:20.910Z,11.23
2019-01-11T09:42:49.341Z,10.90
2019-01-11T09:45:17.779Z,10.80
2019-01-11T09:47:46.425Z,11.47
2019-01-11T09:50:14.833Z,10.20
2019-01-11T09:52:43.415Z,9.83
2019-01-11T09:55:12.013Z,10.60
2019-01-11T09:57:40.420Z,11.20
2019-01-11T10:00:14.489Z,12.30
2019-01-11T10:02:43.419Z,11.30
2019-01-11T10:05:12.080Z,11.23
2019-01-11T10:07:40.548Z,12.20
2019-01-11T10:10:11.587Z,9.93
2019-01-11T10:12:40.374Z,10.47
2019-01-11T10:15:11.464Z,11.40
2019-01-11T10:17:42.962Z,10.50
2019-01-11T10:20:13.045Z,10.33
2019-01-11T10:22:41.708Z,13.80
2019-01-11T10:25:10.881Z,12.80
2019-01-11T10:27:39.551Z,11.77
2019-01-11T10:30:13.850Z,9.17
2019-01-11T10:32:42.434Z,8.93
2019-01-11T10:35:11.528Z,8.77
2019-01-11T10:37:40.126Z,9.23
2019-01-11T10:40:11.731Z,9.37
2019-01-11T10:42:40.286Z,12.10
2019-01-11T10:45:11.825Z,10.63
2019-01-11T10:47:40.234Z,8.97
2019-01-11T10:50:14.696Z,9.40
2019-01-11T10:52:43.108Z,9.33
2019-01-11T10:55:13.689Z,11.20
2019-01-11T10:57:42.264Z,11.13
2019-01-11T11:00:19.537Z,11.57
2019-01-11T11:02:48.404Z,11.03
2019-01-11T11:05:16.913Z,10.90
2019-01-11T11:07:45.475Z,11.90
2019-01-11T11:10:14.830Z,11.10
2019-01-11T11:12:43.415Z,11.10
2019-01-11T11:15:14.369Z,11.12
2019-01-11T11:17:42.949Z,11.13
2019-01-11T11:20:14.010Z,11.00
2019-01-11T11:22:43.078Z,11.63
2019-01-11T11:25:14.968Z,11.60
2019-01-11T11:27:43.410Z,12.40
2019-01-11T11:30:14.169Z,9.53
2019-01-11T11:32:58.848Z,9.30
2019-01-11T11:35:27.607Z,9.40
2019-01-11T11:37:56.225Z,10.87
2019-01-11T11:40:25.281Z,8.83
2019-01-11T11:42:53.821Z,9.07
2019-01-11T11:45:22.336Z,11.23
2019-01-11T11:47:50.762Z,11.40
2019-01-11T11:50:19.335Z,11.27
2019-01-11T11:52:47.787Z,13.17
2019-01-11T11:55:16.219Z,14.60
2019-01-11T11:57:44.874Z,9.90
2019-01-11T12:00:16.718Z,13.37
2019-01-11T12:02:45.235Z,12.00
2019-01-11T12:05:13.984Z,11.33
2019-01-11T12:07:42.531Z,11.33
2019-01-11T12:10:13.607Z,10.77
2019-01-11T12:12:42.281Z,11.63
2019-01-11T12:15:12.664Z,10.40
2019-01-11T12:17:41.182Z,10.93
2019-01-11T12:22:48.257Z,11.20
2019-01-11T12:25:16.685Z,11.60
2019-01-11T12:27:45.208Z,10.53
2019-01-11T12:30:15.580Z,11.73
2019-01-11T12:32:44.116Z,17.20
2019-01-11T12:35:12.625Z,12.47
2019-01-11T12:37:41.229Z,11.03
2019-01-11T12:40:12.805Z,13.23
2019-01-11T12:42:41.364Z,9.93
2019-01-11T12:45:12.452Z,12.03
2019-01-11T12:47:40.956Z,12.03
2019-01-11T12:50:15.419Z,12.37
2019-01-11T12:52:43.881Z,15.73
2019-01-11T12:55:12.420Z,12.17
2019-01-11T12:57:40.912Z,11.33
2019-01-11T13:00:12.753Z,14.30
2019-01-11T13:02:41.210Z,12.80
2019-01-11T13:05:12.100Z,14.43
2019-01-11T13:07:40.780Z,13.43
2019-01-11T13:10:12.347Z,15.33
2019-01-11T13:12:40.938Z,12.10
2019-01-11T13:15:12.219Z,13.40
2019-01-11T13:17:40.676Z,13.30
2019-01-11T13:20:14.849Z,14.30
2019-01-11T13:22:43.738Z,13.40
2019-01-11T13:25:12.210Z,14.90
2019-01-11T13:27:40.857Z,13.33
2019-01-11T13:30:12.535Z,14.70
2019-01-11T13:32:41.079Z,13.60
2019-01-11T13:35:09.845Z,13.05
2019-01-11T13:37:38.387Z,13.90
2019-01-11T13:40:19.016Z,14.28
2019-01-11T13:42:47.506Z,14.15
2019-01-11T13:45:16.116Z,14.40
2019-01-11T13:47:44.654Z,14.18
2019-01-11T13:50:30.681Z,12.95
2019-01-11T13:52:59.105Z,14.10
2019-01-11T13:55:27.688Z,13.68
2019-01-11T13:57:56.159Z,14.33
2019-01-11T14:00:24.789Z,13.20
2019-01-11T14:02:53.509Z,13.30
2019-01-11T14:05:22.030Z,13.70
2019-01-11T14:07:50.489Z,12.90
2019-01-11T14:10:18.920Z,13.70
2019-01-11T14:12:47.387Z,13.95
2019-01-11T14:15:16.037Z,15.00
2019-01-11T14:17:44.648Z,13.60
2019-01-11T14:20:13.338Z,12.78
2019-01-11T14:22:41.789Z,13.62
2019-01-11T14:25:12.730Z,12.90
2019-01-11T14:27:41.261Z,14.10
2019-01-11T14:30:16.184Z,12.80
2019-01-11T14:32:45.008Z,12.33
2019-01-11T14:35:13.516Z,13.23
2019-01-11T14:37:42.028Z,13.03
2019-01-11T14:40:13.411Z,12.30
2019-01-11T14:42:41.880Z,12.18
2019-01-11T14:45:13.099Z,12.53
2019-01-11T14:47:41.530Z,12.80
2019-01-11T14:50:13.086Z,12.40
2019-01-11T14:52:41.646Z,13.13
2019-01-11T14:55:10.391Z,12.50
2019-01-11T14:57:38.955Z,14.10
2019-01-11T15:00:10.472Z,11.93
2019-01-11T15:02:38.995Z,12.68
2019-01-11T15:05:09.468Z,11.73
2019-01-11T15:07:37.957Z,11.68
2019-01-11T15:10:09.737Z,12.10
2019-01-11T15:12:38.193Z,12.82
2019-01-11T15:15:07.988Z,12.30
2019-01-11T15:17:36.498Z,11.85
2019-01-11T15:20:08.039Z,12.80
2019-01-11T15:22:36.453Z,11.55
2019-01-11T15:25:07.075Z,13.80
2019-01-11T15:27:35.565Z,12.80
2019-01-11T15:30:06.853Z,14.15
2019-01-11T15:32:35.256Z,12.73
2019-01-11T15:35:05.048Z,13.08
2019-01-11T15:37:33.493Z,11.60
2019-01-11T15:40:02.033Z,13.13
2019-01-11T15:42:30.474Z,14.13
2019-01-11T15:44:58.936Z,14.03
2019-01-11T15:47:27.456Z,12.90
2019-01-11T15:49:55.981Z,12.35
2019-01-11T15:52:24.431Z,13.70
2019-01-11T15:54:52.915Z,13.98
2019-01-11T15:57:24.962Z,12.53
2019-01-11T16:00:01.391Z,12.07
2019-01-11T16:02:29.915Z,11.93
2019-01-11T16:04:59.804Z,11.97
2019-01-11T16:07:28.462Z,12.95
2019-01-11T16:09:58.937Z,12.70
2019-01-11T16:12:30.010Z,13.20
2019-01-11T16:15:01.557Z,13.18
2019-01-11T16:17:31.948Z,11.80
2019-01-11T16:20:00.392Z,12.18
2019-01-11T16:22:28.924Z,11.30
2019-01-11T16:24:57.354Z,14.70
2019-01-11T16:27:26.384Z,11.40
2019-01-11T16:29:54.860Z,11.18
2019-01-11T16:32:23.385Z,10.98
2019-01-11T16:34:51.795Z,12.43
2019-01-11T16:37:20.247Z,11.80
2019-01-11T16:39:48.660Z,11.93
2019-01-11T16:42:17.093Z,12.03
2019-01-11T16:44:45.556Z,11.50
2019-01-11T16:47:13.994Z,11.55
2019-01-11T16:49:42.449Z,12.37
2019-01-11T16:52:15.334Z,12.65
2019-01-11T16:54:41.074Z,11.33
2019-01-11T16:57:09.517Z,11.50
2019-01-11T16:59:37.954Z,12.10
2019-01-11T17:02:06.375Z,12.90
2019-01-11T17:04:34.813Z,11.95
2019-01-11T17:07:03.265Z,11.80
2019-01-11T17:09:31.723Z,12.37
2019-01-11T17:12:00.207Z,12.45
2019-01-11T17:14:28.761Z,12.23
2019-01-11T17:16:57.200Z,12.20
2019-01-11T17:19:25.654Z,11.80
2019-01-11T17:21:54.081Z,12.47
2019-01-11T17:24:22.536Z,12.37
2019-01-11T17:26:50.989Z,12.75
2019-01-11T17:29:19.705Z,13.22
2019-01-11T17:31:48.274Z,12.82
2019-01-11T17:34:16.807Z,12.70
2019-01-11T17:36:45.267Z,12.90
2019-01-11T17:39:13.841Z,13.13
2019-01-11T17:41:42.330Z,12.37
2019-01-11T17:44:10.835Z,14.10
2019-01-11T17:46:39.294Z,13.13
2019-01-11T17:49:07.830Z,13.88
2019-01-11T17:51:36.298Z,13.00
2019-01-11T17:54:04.966Z,12.00
2019-01-11T17:56:33.460Z,11.00
2019-01-11T17:59:01.905Z,13.68
2019-01-11T18:01:30.438Z,12.18
2019-01-11T18:03:58.986Z,12.28
2019-01-11T18:06:27.642Z,11.60
2019-01-11T18:08:56.170Z,13.40
2019-01-11T18:11:24.774Z,13.70
2019-01-11T18:13:53.215Z,12.45
2019-01-11T18:16:21.747Z,13.10
2019-01-11T18:18:50.202Z,12.35
2019-01-11T18:21:18.703Z,12.37
2019-01-11T18:23:47.129Z,12.50
2019-01-11T18:26:15.739Z,12.40
2019-01-11T18:28:44.198Z,16.07
2019-01-11T18:31:12.818Z,13.80
2019-01-11T18:33:41.241Z,11.48
2019-01-11T18:36:09.729Z,12.63
2019-01-11T18:38:38.304Z,12.40
2019-01-11T18:41:06.791Z,11.78
2019-01-11T18:43:35.277Z,12.70
2019-01-11T18:46:03.784Z,12.20
2019-01-11T18:48:32.242Z,14.00
2019-01-11T18:51:00.689Z,11.83
2019-01-11T18:53:29.269Z,12.55
2019-01-11T18:55:57.821Z,12.37
2019-01-11T18:58:26.308Z,12.60
2019-01-11T19:00:54.808Z,12.67
2019-01-11T19:03:23.436Z,12.75
2019-01-11T19:05:51.949Z,14.30
2019-01-11T19:08:20.390Z,13.35
2019-01-11T19:10:48.922Z,13.15
2019-01-11T19:13:17.541Z,13.30
2019-01-11T19:15:46.034Z,13.32
2019-01-11T19:18:14.811Z,13.43
2019-01-11T19:20:43.390Z,15.05
2019-01-11T19:23:12.041Z,14.60
2019-01-11T19:25:40.586Z,15.78
2019-01-11T19:28:09.309Z,14.20
2019-01-11T19:30:37.745Z,13.60
2019-01-11T19:33:06.262Z,14.80
2019-01-11T19:35:34.855Z,15.05
2019-01-11T19:38:03.402Z,15.85
2019-01-11T19:40:31.917Z,15.78
2019-01-11T19:43:00.390Z,16.82
2019-01-11T19:45:28.999Z,15.68
2019-01-11T19:47:57.514Z,17.20
2019-01-11T19:50:25.982Z,17.40
2019-01-11T19:52:54.565Z,17.07
2019-01-11T19:55:23.165Z,18.67
2019-01-11T19:57:51.714Z,20.52
2019-01-11T20:00:22.888Z,17.87
2019-01-11T20:02:51.764Z,17.75
2019-01-11T20:05:20.703Z,17.75
2019-01-11T20:07:49.474Z,17.60
2019-01-11T20:10:23.777Z,17.00
2019-01-11T20:12:52.319Z,17.73
2019-01-11T20:15:21.110Z,17.05
2019-01-11T20:17:50.067Z,18.70
2019-01-11T20:20:18.693Z,19.15
2019-01-11T20:22:47.361Z,17.55
2019-01-11T20:25:18.032Z,17.73
2019-01-11T20:27:46.689Z,15.68
2019-01-11T20:30:20.703Z,16.45
2019-01-11T20:32:49.369Z,16.73
2019-01-11T20:35:18.265Z,18.30
2019-01-11T20:37:46.958Z,16.23
2019-01-11T20:40:16.647Z,16.00
2019-01-11T20:42:45.292Z,15.80
2019-01-11T20:45:15.986Z,15.88
2019-01-11T20:47:44.524Z,16.05
2019-01-11T20:50:15.754Z,16.10
2019-01-11T20:52:44.310Z,15.63
2019-01-11T20:55:13.229Z,15.38
2019-01-11T20:57:41.817Z,15.40
2019-01-11T21:00:16.325Z,15.58
2019-01-11T21:02:44.946Z,15.80
2019-01-11T21:05:13.895Z,16.40
2019-01-11T21:07:42.476Z,16.32
2019-01-11T21:10:12.558Z,16.02
2019-01-11T21:12:41.122Z,15.20
2019-01-11T21:15:12.891Z,15.63
2019-01-11T21:17:41.640Z,16.55
2019-01-11T21:20:13.423Z,16.50
2019-01-11T21:22:42.178Z,16.10
2019-01-11T21:25:12.817Z,16.48
2019-01-11T21:27:41.401Z,16.30
2019-01-11T21:30:18.585Z,15.98
2019-01-11T21:32:47.205Z,16.55
2019-01-11T21:35:15.849Z,16.50
2019-01-11T21:37:44.526Z,19.10
2019-01-11T21:40:16.141Z,17.40
2019-01-11T21:42:44.616Z,17.17
2019-01-11T21:45:13.544Z,16.00
2019-01-11T21:47:42.034Z,18.02
2019-01-11T21:50:13.837Z,17.60
2019-01-11T21:52:42.303Z,17.15
2019-01-11T21:55:11.797Z,18.10
2019-01-11T21:57:40.423Z,16.60
2019-01-11T22:00:11.987Z,17.23
2019-01-11T22:02:40.431Z,17.17
2019-01-11T22:05:09.319Z,16.62
2019-01-11T22:07:37.837Z,17.27
2019-01-11T22:10:09.406Z,16.10
2019-01-11T22:12:38.012Z,16.67
2019-01-11T22:15:08.990Z,17.07
2019-01-11T22:17:37.441Z,17.82
2019-01-11T22:20:09.118Z,17.20
2019-01-11T22:22:37.694Z,18.37
2019-01-11T22:25:08.111Z,19.52
2019-01-11T22:27:36.623Z,17.45
2019-01-11T22:30:11.332Z,18.50
2019-01-11T22:32:39.842Z,19.35
2019-01-11T22:35:08.470Z,17.30
2019-01-11T22:37:36.908Z,17.00
2019-01-11T22:40:14.061Z,18.95
2019-01-11T22:42:42.504Z,20.40
2019-01-11T22:45:13.398Z,19.77
2019-01-11T22:47:42.025Z,16.40
2019-01-11T22:50:13.525Z,15.90
2019-01-11T22:52:42.218Z,15.75
2019-01-11T22:55:18.254Z,14.43
2019-01-11T22:57:46.766Z,14.47
2019-01-11T23:00:36.417Z,15.78
2019-01-11T23:03:08.306Z,16.20
2019-01-11T23:05:38.488Z,18.25
2019-01-11T23:08:08.144Z,18.50
2019-01-11T23:10:48.764Z,17.73
2019-01-11T23:13:17.223Z,19.95
2019-01-11T23:15:45.790Z,18.10
2019-01-11T23:18:14.307Z,20.77
2019-01-11T23:20:42.782Z,18.62
2019-01-11T23:23:11.397Z,18.70
2019-01-11T23:25:39.824Z,18.45
2019-01-11T23:28:08.472Z,17.95
2019-01-11T23:30:36.905Z,15.50
2019-01-11T23:33:05.390Z,16.25
2019-01-11T23:35:33.910Z,15.55
2019-01-11T23:38:02.448Z,15.35
2019-01-11T23:40:30.857Z,16.48
2019-01-11T23:42:59.430Z,16.27
2019-01-11T23:45:27.912Z,16.45
2019-01-11T23:47:56.364Z,16.10
2019-01-11T23:50:24.815Z,15.70
2019-01-11T23:52:53.258Z,14.10
2019-01-11T23:55:21.680Z,15.38
2019-01-11T23:57:50.110Z,16.05
